sensor_id;sensor_type;location;lat;lon;timestamp;pressure;altitude;pressure_sealevel;temperature;humidity
10958;BME280;5531;42.570;23.676;2022-08-03T00:01:28;92182.69;;;19.41;65.76
10958;BME280;5531;42.570;23.676;2022-08-03T00:03:57;92187.09;;;19.36;65.23
10958;BME280;5531;42.570;23.676;2022-08-03T00:06:26;92176.81;;;19.39;65.50
10958;BME280;5531;42.570;23.676;2022-08-03T00:08:58;92180.75;;;19.37;65.59
10958;BME280;5531;42.570;23.676;2022-08-03T00:11:27;92192.50;;;19.41;65.22
10958;BME280;5531;42.570;23.676;2022-08-03T00:13:56;92187.69;;;19.38;65.11
10958;BME280;5531;42.570;23.676;2022-08-03T00:16:25;92184.63;;;19.29;66.33
10958;BME280;5531;42.570;23.676;2022-08-03T00:18:54;92187.63;;;19.33;65.29
10958;BME280;5531;42.570;23.676;2022-08-03T00:21:23;92186.13;;;19.42;65.00
10958;BME280;5531;42.570;23.676;2022-08-03T00:23:52;92178.72;;;19.44;64.81
10958;BME280;5531;42.570;23.676;2022-08-03T00:26:24;92176.00;;;19.39;65.03
10958;BME280;5531;42.570;23.676;2022-08-03T00:28:53;92174.88;;;19.35;65.25
10958;BME280;5531;42.570;23.676;2022-08-03T00:31:22;92179.31;;;19.29;65.63
10958;BME280;5531;42.570;23.676;2022-08-03T00:33:51;92179.75;;;19.21;65.90
10958;BME280;5531;42.570;23.676;2022-08-03T00:36:20;92181.78;;;19.14;65.90
10958;BME280;5531;42.570;23.676;2022-08-03T00:38:49;92180.16;;;19.13;66.39
10958;BME280;5531;42.570;23.676;2022-08-03T00:41:18;92171.09;;;18.92;66.53
10958;BME280;5531;42.570;23.676;2022-08-03T00:43:50;92175.59;;;18.57;67.55
10958;BME280;5531;42.570;23.676;2022-08-03T00:46:19;92177.59;;;18.33;68.42
10958;BME280;5531;42.570;23.676;2022-08-03T00:48:48;92172.44;;;18.26;69.34
10958;BME280;5531;42.570;23.676;2022-08-03T00:51:17;92173.41;;;18.37;68.63
10958;BME280;5531;42.570;23.676;2022-08-03T00:53:48;92168.03;;;18.49;68.15
10958;BME280;5531;42.570;23.676;2022-08-03T00:56:18;92171.66;;;18.60;67.92
10958;BME280;5531;42.570;23.676;2022-08-03T00:58:50;92168.44;;;18.58;68.18
10958;BME280;5531;42.570;23.676;2022-08-03T01:01:20;92165.69;;;18.53;67.95
10958;BME280;5531;42.570;23.676;2022-08-03T01:03:49;92162.09;;;18.59;67.49
10958;BME280;5531;42.570;23.676;2022-08-03T01:06:21;92161.47;;;18.52;68.51
10958;BME280;5531;42.570;23.676;2022-08-03T01:09:00;92153.66;;;18.62;67.55
10958;BME280;5531;42.570;23.676;2022-08-03T01:11:34;92155.25;;;18.63;68.13
10958;BME280;5531;42.570;23.676;2022-08-03T01:14:13;92158.84;;;18.74;66.92
10958;BME280;5531;42.570;23.676;2022-08-03T01:16:49;92157.91;;;18.80;66.30
10958;BME280;5531;42.570;23.676;2022-08-03T01:19:33;92166.19;;;18.83;66.04
10958;BME280;5531;42.570;23.676;2022-08-03T01:22:16;92153.00;;;18.89;65.75
10958;BME280;5531;42.570;23.676;2022-08-03T01:24:55;92155.16;;;18.92;66.00
10958;BME280;5531;42.570;23.676;2022-08-03T01:27:33;92152.28;;;18.93;65.76
10958;BME280;5531;42.570;23.676;2022-08-03T01:30:11;92156.31;;;18.96;65.73
10958;BME280;5531;42.570;23.676;2022-08-03T01:32:46;92148.56;;;18.77;66.97
10958;BME280;5531;42.570;23.676;2022-08-03T01:35:21;92160.81;;;18.61;68.11
10958;BME280;5531;42.570;23.676;2022-08-03T01:37:56;92153.88;;;18.60;67.48
10958;BME280;5531;42.570;23.676;2022-08-03T01:40:27;92152.25;;;18.59;67.57
10958;BME280;5531;42.570;23.676;2022-08-03T01:42:58;92150.03;;;18.68;67.01
10958;BME280;5531;42.570;23.676;2022-08-03T01:45:32;92146.06;;;18.71;67.28
10958;BME280;5531;42.570;23.676;2022-08-03T01:48:02;92146.31;;;18.69;67.06
10958;BME280;5531;42.570;23.676;2022-08-03T01:50:33;92151.97;;;18.73;66.58
10958;BME280;5531;42.570;23.676;2022-08-03T01:53:03;92142.78;;;18.63;67.39
10958;BME280;5531;42.570;23.676;2022-08-03T01:55:35;92138.06;;;18.48;67.85
10958;BME280;5531;42.570;23.676;2022-08-03T01:58:06;92136.59;;;18.58;67.45
10958;BME280;5531;42.570;23.676;2022-08-03T02:00:40;92144.88;;;18.61;66.60
10958;BME280;5531;42.570;23.676;2022-08-03T02:03:11;92147.31;;;18.63;67.32
10958;BME280;5531;42.570;23.676;2022-08-03T02:05:42;92140.94;;;18.64;67.41
10958;BME280;5531;42.570;23.676;2022-08-03T02:08:15;92139.34;;;18.63;67.26
10958;BME280;5531;42.570;23.676;2022-08-03T02:10:46;92139.34;;;18.63;66.65
10958;BME280;5531;42.570;23.676;2022-08-03T02:13:18;92155.81;;;18.48;67.30
10958;BME280;5531;42.570;23.676;2022-08-03T02:15:51;92149.38;;;18.44;67.96
10958;BME280;5531;42.570;23.676;2022-08-03T02:18:22;92141.91;;;18.41;67.50
10958;BME280;5531;42.570;23.676;2022-08-03T02:20:52;92143.75;;;18.23;67.87
10958;BME280;5531;42.570;23.676;2022-08-03T02:23:22;92140.28;;;18.23;68.44
10958;BME280;5531;42.570;23.676;2022-08-03T02:25:54;92142.69;;;18.07;69.25
10958;BME280;5531;42.570;23.676;2022-08-03T02:28:29;92148.50;;;17.92;70.28
10958;BME280;5531;42.570;23.676;2022-08-03T02:31:06;92141.84;;;17.90;69.99
10958;BME280;5531;42.570;23.676;2022-08-03T02:33:41;92137.69;;;17.82;70.07
10958;BME280;5531;42.570;23.676;2022-08-03T02:36:13;92140.03;;;17.78;70.45
10958;BME280;5531;42.570;23.676;2022-08-03T02:38:45;92137.13;;;17.80;69.86
10958;BME280;5531;42.570;23.676;2022-08-03T02:41:21;92135.75;;;17.89;69.94
10958;BME280;5531;42.570;23.676;2022-08-03T02:43:54;92148.03;;;17.95;69.46
10958;BME280;5531;42.570;23.676;2022-08-03T02:46:44;92145.47;;;18.01;69.33
10958;BME280;5531;42.570;23.676;2022-08-03T02:49:16;92142.94;;;18.06;68.91
10958;BME280;5531;42.570;23.676;2022-08-03T02:51:46;92149.03;;;18.06;68.91
10958;BME280;5531;42.570;23.676;2022-08-03T02:54:18;92142.09;;;18.05;68.53
10958;BME280;5531;42.570;23.676;2022-08-03T02:56:48;92145.00;;;18.04;68.92
10958;BME280;5531;42.570;23.676;2022-08-03T02:59:18;92137.88;;;18.04;69.21
10958;BME280;5531;42.570;23.676;2022-08-03T03:01:51;92144.25;;;17.91;69.96
10958;BME280;5531;42.570;23.676;2022-08-03T03:04:21;92159.59;;;17.77;70.48
10958;BME280;5531;42.570;23.676;2022-08-03T03:06:51;92151.19;;;17.81;70.14
10958;BME280;5531;42.570;23.676;2022-08-03T03:09:21;92157.09;;;17.71;70.03
10958;BME280;5531;42.570;23.676;2022-08-03T03:11:52;92161.13;;;17.73;70.38
10958;BME280;5531;42.570;23.676;2022-08-03T03:14:21;92165.97;;;17.76;70.26
10958;BME280;5531;42.570;23.676;2022-08-03T03:16:54;92164.81;;;17.72;70.43
10958;BME280;5531;42.570;23.676;2022-08-03T03:19:24;92164.50;;;17.69;70.88
10958;BME280;5531;42.570;23.676;2022-08-03T03:21:54;92164.75;;;17.55;71.44
10958;BME280;5531;42.570;23.676;2022-08-03T03:24:24;92170.59;;;17.69;70.29
10958;BME280;5531;42.570;23.676;2022-08-03T03:26:54;92167.28;;;17.62;71.13
10958;BME280;5531;42.570;23.676;2022-08-03T03:29:24;92162.88;;;17.68;70.25
10958;BME280;5531;42.570;23.676;2022-08-03T03:31:56;92174.47;;;17.78;70.11
10958;BME280;5531;42.570;23.676;2022-08-03T03:34:28;92169.81;;;17.86;70.06
10958;BME280;5531;42.570;23.676;2022-08-03T03:36:57;92168.13;;;17.91;69.23
10958;BME280;5531;42.570;23.676;2022-08-03T03:39:26;92163.69;;;17.97;68.97
10958;BME280;5531;42.570;23.676;2022-08-03T03:41:56;92170.47;;;18.05;69.27
10958;BME280;5531;42.570;23.676;2022-08-03T03:44:26;92172.19;;;18.11;68.55
10958;BME280;5531;42.570;23.676;2022-08-03T03:46:58;92182.31;;;18.14;68.61
10958;BME280;5531;42.570;23.676;2022-08-03T03:49:27;92174.59;;;18.12;69.21
10958;BME280;5531;42.570;23.676;2022-08-03T03:51:57;92176.91;;;18.09;69.68
10958;BME280;5531;42.570;23.676;2022-08-03T03:54:26;92179.59;;;17.97;70.39
10958;BME280;5531;42.570;23.676;2022-08-03T03:57:06;92178.50;;;17.93;71.18
10958;BME280;5531;42.570;23.676;2022-08-03T03:59:37;92187.72;;;17.90;70.95
10958;BME280;5531;42.570;23.676;2022-08-03T04:02:10;92186.34;;;17.88;71.60
10958;BME280;5531;42.570;23.676;2022-08-03T04:04:39;92186.78;;;17.85;71.05
10958;BME280;5531;42.570;23.676;2022-08-03T04:07:22;92192.09;;;17.85;71.37
10958;BME280;5531;42.570;23.676;2022-08-03T04:10:08;92186.09;;;17.77;71.90
10958;BME280;5531;42.570;23.676;2022-08-03T04:12:52;92197.69;;;17.59;71.89
10958;BME280;5531;42.570;23.676;2022-08-03T04:15:23;92193.16;;;17.72;71.67
10958;BME280;5531;42.570;23.676;2022-08-03T04:17:56;92192.88;;;17.85;72.01
10958;BME280;5531;42.570;23.676;2022-08-03T04:20:29;92194.50;;;17.86;72.44
10958;BME280;5531;42.570;23.676;2022-08-03T04:22:59;92191.16;;;17.91;72.01
10958;BME280;5531;42.570;23.676;2022-08-03T04:25:32;92190.81;;;17.99;72.09
10958;BME280;5531;42.570;23.676;2022-08-03T04:28:02;92195.56;;;18.14;71.40
10958;BME280;5531;42.570;23.676;2022-08-03T04:30:32;92189.97;;;18.27;71.96
10958;BME280;5531;42.570;23.676;2022-08-03T04:33:07;92195.19;;;18.39;71.63
10958;BME280;5531;42.570;23.676;2022-08-03T04:35:36;92196.19;;;18.50;70.63
10958;BME280;5531;42.570;23.676;2022-08-03T04:38:06;92195.06;;;18.63;70.42
10958;BME280;5531;42.570;23.676;2022-08-03T04:40:39;92192.00;;;18.71;70.39
10958;BME280;5531;42.570;23.676;2022-08-03T04:43:10;92202.22;;;18.79;70.36
10958;BME280;5531;42.570;23.676;2022-08-03T04:45:41;92205.06;;;18.90;69.79
10958;BME280;5531;42.570;23.676;2022-08-03T04:48:13;92203.03;;;18.97;68.80
10958;BME280;5531;42.570;23.676;2022-08-03T04:50:43;92208.50;;;19.07;69.57
10958;BME280;5531;42.570;23.676;2022-08-03T04:53:12;92202.78;;;19.15;69.42
10958;BME280;5531;42.570;23.676;2022-08-03T04:55:42;92207.44;;;19.25;68.56
10958;BME280;5531;42.570;23.676;2022-08-03T04:58:11;92213.69;;;19.36;68.11
10958;BME280;5531;42.570;23.676;2022-08-03T05:00:40;92213.84;;;19.46;68.21
10958;BME280;5531;42.570;23.676;2022-08-03T05:03:13;92218.22;;;19.57;66.72
10958;BME280;5531;42.570;23.676;2022-08-03T05:05:42;92217.88;;;19.71;65.88
10958;BME280;5531;42.570;23.676;2022-08-03T05:08:11;92211.91;;;19.81;65.61
10958;BME280;5531;42.570;23.676;2022-08-03T05:10:40;92218.94;;;19.92;65.75
10958;BME280;5531;42.570;23.676;2022-08-03T05:13:09;92221.97;;;20.01;65.25
10958;BME280;5531;42.570;23.676;2022-08-03T05:15:39;92225.28;;;20.13;65.75
10958;BME280;5531;42.570;23.676;2022-08-03T05:18:08;92234.13;;;20.19;66.18
10958;BME280;5531;42.570;23.676;2022-08-03T05:20:40;92240.31;;;20.24;65.14
10958;BME280;5531;42.570;23.676;2022-08-03T05:23:09;92231.72;;;20.17;65.28
10958;BME280;5531;42.570;23.676;2022-08-03T05:25:38;92232.09;;;20.26;65.19
10958;BME280;5531;42.570;23.676;2022-08-03T05:28:08;92235.63;;;20.37;61.82
10958;BME280;5531;42.570;23.676;2022-08-03T05:30:37;92235.94;;;20.40;61.75
10958;BME280;5531;42.570;23.676;2022-08-03T05:33:07;92229.88;;;20.45;62.62
10958;BME280;5531;42.570;23.676;2022-08-03T05:35:36;92222.75;;;20.50;63.04
10958;BME280;5531;42.570;23.676;2022-08-03T05:38:08;92228.66;;;20.58;63.33
10958;BME280;5531;42.570;23.676;2022-08-03T05:40:37;92238.25;;;20.59;62.87
10958;BME280;5531;42.570;23.676;2022-08-03T05:43:06;92231.44;;;20.68;62.60
10958;BME280;5531;42.570;23.676;2022-08-03T05:45:35;92238.13;;;20.71;62.11
10958;BME280;5531;42.570;23.676;2022-08-03T05:48:05;92236.41;;;20.86;62.37
10958;BME280;5531;42.570;23.676;2022-08-03T05:50:34;92241.25;;;20.95;61.92
10958;BME280;5531;42.570;23.676;2022-08-03T05:53:03;92252.97;;;20.94;61.81
10958;BME280;5531;42.570;23.676;2022-08-03T05:55:41;92243.16;;;20.99;61.43
10958;BME280;5531;42.570;23.676;2022-08-03T05:58:19;92241.25;;;20.95;61.99
10958;BME280;5531;42.570;23.676;2022-08-03T06:00:48;92252.59;;;21.12;61.34
10958;BME280;5531;42.570;23.676;2022-08-03T06:03:17;92245.22;;;21.24;61.19
10958;BME280;5531;42.570;23.676;2022-08-03T06:05:47;92256.00;;;21.40;61.78
10958;BME280;5531;42.570;23.676;2022-08-03T06:08:16;92248.63;;;21.52;61.45
10958;BME280;5531;42.570;23.676;2022-08-03T06:10:47;92250.56;;;21.67;61.71
10958;BME280;5531;42.570;23.676;2022-08-03T06:13:16;92254.34;;;21.76;60.89
10958;BME280;5531;42.570;23.676;2022-08-03T06:15:46;92256.00;;;21.88;60.92
10958;BME280;5531;42.570;23.676;2022-08-03T06:18:15;92248.28;;;21.91;61.30
10958;BME280;5531;42.570;23.676;2022-08-03T06:20:44;92244.31;;;21.99;61.24
10958;BME280;5531;42.570;23.676;2022-08-03T06:23:14;92253.97;;;22.10;61.36
10958;BME280;5531;42.570;23.676;2022-08-03T06:25:43;92258.53;;;22.20;61.27
10958;BME280;5531;42.570;23.676;2022-08-03T06:28:14;92251.97;;;22.38;60.87
10958;BME280;5531;42.570;23.676;2022-08-03T06:30:44;92263.19;;;22.50;59.44
10958;BME280;5531;42.570;23.676;2022-08-03T06:33:13;92257.63;;;22.57;60.28
10958;BME280;5531;42.570;23.676;2022-08-03T06:35:42;92253.59;;;22.55;59.32
10958;BME280;5531;42.570;23.676;2022-08-03T06:38:11;92252.28;;;22.57;59.83
10958;BME280;5531;42.570;23.676;2022-08-03T06:40:40;92263.75;;;22.63;59.71
10958;BME280;5531;42.570;23.676;2022-08-03T06:43:09;92241.88;;;22.56;59.86
10958;BME280;5531;42.570;23.676;2022-08-03T06:45:42;92259.50;;;22.67;60.24
10958;BME280;5531;42.570;23.676;2022-08-03T06:48:12;92266.44;;;22.73;61.03
10958;BME280;5531;42.570;23.676;2022-08-03T06:50:41;92257.66;;;22.83;61.32
10958;BME280;5531;42.570;23.676;2022-08-03T06:53:19;92252.59;;;22.92;60.22
10958;BME280;5531;42.570;23.676;2022-08-03T06:55:50;92265.44;;;23.10;60.73
10958;BME280;5531;42.570;23.676;2022-08-03T06:58:19;92262.78;;;23.15;57.47
10958;BME280;5531;42.570;23.676;2022-08-03T07:00:51;92266.53;;;23.19;57.74
10958;BME280;5531;42.570;23.676;2022-08-03T07:03:20;92256.38;;;23.21;57.74
10958;BME280;5531;42.570;23.676;2022-08-03T07:05:49;92263.84;;;23.30;56.77
10958;BME280;5531;42.570;23.676;2022-08-03T07:08:18;92267.84;;;23.37;57.89
10958;BME280;5531;42.570;23.676;2022-08-03T07:10:49;92270.25;;;23.49;58.14
10958;BME280;5531;42.570;23.676;2022-08-03T07:13:18;92264.09;;;23.49;55.19
10958;BME280;5531;42.570;23.676;2022-08-03T07:15:47;92274.53;;;23.50;55.72
10958;BME280;5531;42.570;23.676;2022-08-03T07:18:30;92267.81;;;23.53;54.39
10958;BME280;5531;42.570;23.676;2022-08-03T07:20:59;92269.69;;;23.63;55.20
10958;BME280;5531;42.570;23.676;2022-08-03T07:23:28;92259.78;;;23.58;54.54
10958;BME280;5531;42.570;23.676;2022-08-03T07:25:57;92255.25;;;23.64;55.09
10958;BME280;5531;42.570;23.676;2022-08-03T07:28:30;92261.91;;;23.76;53.35
10958;BME280;5531;42.570;23.676;2022-08-03T07:31:04;92273.41;;;23.87;53.31
10958;BME280;5531;42.570;23.676;2022-08-03T07:33:36;92261.63;;;23.93;54.42
10958;BME280;5531;42.570;23.676;2022-08-03T07:36:05;92266.41;;;24.02;53.92
10958;BME280;5531;42.570;23.676;2022-08-03T07:38:46;92258.34;;;24.07;53.04
10958;BME280;5531;42.570;23.676;2022-08-03T07:41:24;92261.00;;;24.12;54.92
10958;BME280;5531;42.570;23.676;2022-08-03T07:43:53;92265.81;;;24.20;53.75
10958;BME280;5531;42.570;23.676;2022-08-03T07:46:22;92259.94;;;24.18;54.32
10958;BME280;5531;42.570;23.676;2022-08-03T07:48:54;92259.06;;;24.33;53.28
10958;BME280;5531;42.570;23.676;2022-08-03T07:51:23;92256.09;;;24.40;53.12
10958;BME280;5531;42.570;23.676;2022-08-03T07:53:52;92269.94;;;24.52;53.47
10958;BME280;5531;42.570;23.676;2022-08-03T07:56:22;92264.88;;;24.50;52.72
10958;BME280;5531;42.570;23.676;2022-08-03T07:58:51;92258.97;;;24.59;53.15
10958;BME280;5531;42.570;23.676;2022-08-03T08:01:24;92271.69;;;24.82;53.47
10958;BME280;5531;42.570;23.676;2022-08-03T08:03:55;92271.59;;;24.98;52.01
10958;BME280;5531;42.570;23.676;2022-08-03T08:06:24;92274.03;;;24.94;52.32
10958;BME280;5531;42.570;23.676;2022-08-03T08:08:53;92281.78;;;24.96;51.85
10958;BME280;5531;42.570;23.676;2022-08-03T08:11:26;92271.50;;;25.08;50.94
10958;BME280;5531;42.570;23.676;2022-08-03T08:13:55;92277.13;;;25.12;50.92
10958;BME280;5531;42.570;23.676;2022-08-03T08:16:27;92287.50;;;24.84;51.87
10958;BME280;5531;42.570;23.676;2022-08-03T08:18:59;92280.13;;;25.05;50.49
10958;BME280;5531;42.570;23.676;2022-08-03T08:21:29;92283.81;;;25.14;51.95
10958;BME280;5531;42.570;23.676;2022-08-03T08:23:58;92281.34;;;25.28;52.20
10958;BME280;5531;42.570;23.676;2022-08-03T08:26:27;92282.28;;;25.42;49.61
10958;BME280;5531;42.570;23.676;2022-08-03T08:28:56;92280.88;;;25.50;49.78
10958;BME280;5531;42.570;23.676;2022-08-03T08:31:25;92276.88;;;25.48;49.14
10958;BME280;5531;42.570;23.676;2022-08-03T08:33:54;92269.44;;;25.69;50.03
10958;BME280;5531;42.570;23.676;2022-08-03T08:36:26;92283.38;;;26.00;49.05
10958;BME280;5531;42.570;23.676;2022-08-03T08:38:55;92276.81;;;26.11;47.86
10958;BME280;5531;42.570;23.676;2022-08-03T08:41:24;92279.16;;;26.18;47.88
10958;BME280;5531;42.570;23.676;2022-08-03T08:43:53;92279.38;;;26.22;47.93
10958;BME280;5531;42.570;23.676;2022-08-03T08:46:28;92274.75;;;26.27;48.77
10958;BME280;5531;42.570;23.676;2022-08-03T08:48:59;92285.53;;;26.46;47.43
10958;BME280;5531;42.570;23.676;2022-08-03T08:51:34;92276.53;;;26.37;45.54
10958;BME280;5531;42.570;23.676;2022-08-03T08:54:06;92275.81;;;26.50;44.88
10958;BME280;5531;42.570;23.676;2022-08-03T08:56:36;92275.88;;;26.45;46.96
10958;BME280;5531;42.570;23.676;2022-08-03T08:59:06;92280.09;;;26.51;45.80
10958;BME280;5531;42.570;23.676;2022-08-03T09:01:35;92271.91;;;26.62;45.25
10958;BME280;5531;42.570;23.676;2022-08-03T09:04:05;92273.28;;;26.59;45.79
10958;BME280;5531;42.570;23.676;2022-08-03T09:06:37;92269.63;;;26.74;45.86
10958;BME280;5531;42.570;23.676;2022-08-03T09:09:06;92265.34;;;26.73;45.02
10958;BME280;5531;42.570;23.676;2022-08-03T09:11:36;92271.06;;;26.85;43.86
10958;BME280;5531;42.570;23.676;2022-08-03T09:14:05;92258.38;;;26.91;44.11
10958;BME280;5531;42.570;23.676;2022-08-03T09:16:34;92259.38;;;26.95;43.34
10958;BME280;5531;42.570;23.676;2022-08-03T09:19:11;92260.13;;;27.01;43.42
10958;BME280;5531;42.570;23.676;2022-08-03T09:21:44;92267.31;;;27.05;43.30
10958;BME280;5531;42.570;23.676;2022-08-03T09:24:13;92270.00;;;27.05;43.41
10958;BME280;5531;42.570;23.676;2022-08-03T09:26:49;92255.25;;;27.03;44.52
10958;BME280;5531;42.570;23.676;2022-08-03T09:29:19;92263.50;;;27.06;42.64
10958;BME280;5531;42.570;23.676;2022-08-03T09:31:48;92262.88;;;27.34;42.17
10958;BME280;5531;42.570;23.676;2022-08-03T09:34:17;92260.72;;;27.50;42.48
10958;BME280;5531;42.570;23.676;2022-08-03T09:36:49;92269.34;;;27.66;42.36
10958;BME280;5531;42.570;23.676;2022-08-03T09:39:20;92267.16;;;27.68;42.48
10958;BME280;5531;42.570;23.676;2022-08-03T09:42:06;92274.41;;;27.67;42.86
10958;BME280;5531;42.570;23.676;2022-08-03T09:44:35;92274.38;;;27.53;42.50
10958;BME280;5531;42.570;23.676;2022-08-03T09:47:07;92274.22;;;27.64;42.50
10958;BME280;5531;42.570;23.676;2022-08-03T09:49:37;92274.31;;;27.58;43.15
10958;BME280;5531;42.570;23.676;2022-08-03T09:52:16;92273.25;;;27.40;42.68
10958;BME280;5531;42.570;23.676;2022-08-03T09:54:51;92268.88;;;27.25;43.28
10958;BME280;5531;42.570;23.676;2022-08-03T09:57:21;92272.75;;;27.19;43.83
10958;BME280;5531;42.570;23.676;2022-08-03T09:59:50;92271.13;;;27.37;44.29
10958;BME280;5531;42.570;23.676;2022-08-03T10:02:25;92273.72;;;27.61;42.69
10958;BME280;5531;42.570;23.676;2022-08-03T10:04:54;92270.38;;;27.84;43.35
10958;BME280;5531;42.570;23.676;2022-08-03T10:07:26;92263.56;;;28.05;42.45
10958;BME280;5531;42.570;23.676;2022-08-03T10:09:57;92263.72;;;27.95;42.34
10958;BME280;5531;42.570;23.676;2022-08-03T10:12:26;92273.13;;;27.78;43.62
10958;BME280;5531;42.570;23.676;2022-08-03T10:14:55;92265.72;;;27.56;43.46
10958;BME280;5531;42.570;23.676;2022-08-03T10:17:25;92261.41;;;27.41;44.66
10958;BME280;5531;42.570;23.676;2022-08-03T10:19:54;92261.31;;;27.28;43.47
10958;BME280;5531;42.570;23.676;2022-08-03T10:22:28;92262.78;;;27.20;43.41
10958;BME280;5531;42.570;23.676;2022-08-03T10:25:01;92264.75;;;27.14;43.35
10958;BME280;5531;42.570;23.676;2022-08-03T10:27:33;92269.19;;;27.05;44.44
10958;BME280;5531;42.570;23.676;2022-08-03T10:30:04;92261.78;;;26.97;45.47
10958;BME280;5531;42.570;23.676;2022-08-03T10:32:39;92260.03;;;26.87;45.50
10958;BME280;5531;42.570;23.676;2022-08-03T10:35:12;92254.38;;;26.88;45.43
10958;BME280;5531;42.570;23.676;2022-08-03T10:37:51;92248.63;;;26.95;44.06
10958;BME280;5531;42.570;23.676;2022-08-03T10:40:21;92253.56;;;27.07;44.31
10958;BME280;5531;42.570;23.676;2022-08-03T10:42:54;92250.81;;;27.12;44.56
10958;BME280;5531;42.570;23.676;2022-08-03T10:45:25;92241.34;;;27.15;46.59
10958;BME280;5531;42.570;23.676;2022-08-03T10:47:56;92249.84;;;27.03;45.07
10958;BME280;5531;42.570;23.676;2022-08-03T10:50:33;92252.63;;;26.98;44.83
10958;BME280;5531;42.570;23.676;2022-08-03T10:53:06;92258.81;;;26.79;44.73
10958;BME280;5531;42.570;23.676;2022-08-03T10:55:36;92262.53;;;26.59;44.85
10958;BME280;5531;42.570;23.676;2022-08-03T10:58:45;92259.78;;;26.45;46.35
10958;BME280;5531;42.570;23.676;2022-08-03T11:01:15;92257.72;;;26.37;45.96
10958;BME280;5531;42.570;23.676;2022-08-03T11:06:44;92258.03;;;26.11;49.78
10958;BME280;5531;42.570;23.676;2022-08-03T11:09:16;92259.38;;;26.09;47.59
10958;BME280;5531;42.570;23.676;2022-08-03T11:11:47;92258.09;;;26.06;48.52
10958;BME280;5531;42.570;23.676;2022-08-03T11:14:18;92263.78;;;26.00;49.44
10958;BME280;5531;42.570;23.676;2022-08-03T11:16:50;92251.69;;;25.73;51.50
10958;BME280;5531;42.570;23.676;2022-08-03T11:19:43;92246.97;;;25.59;52.96
10958;BME280;5531;42.570;23.676;2022-08-03T11:22:13;92257.09;;;25.38;54.07
10958;BME280;5531;42.570;23.676;2022-08-03T11:25:01;92252.53;;;24.99;56.62
10958;BME280;5531;42.570;23.676;2022-08-03T11:27:31;92256.03;;;25.00;57.24
10958;BME280;5531;42.570;23.676;2022-08-03T11:30:04;92243.31;;;24.76;57.76
10958;BME280;5531;42.570;23.676;2022-08-03T11:32:52;92248.00;;;24.50;58.11
10958;BME280;5531;42.570;23.676;2022-08-03T11:35:23;92247.31;;;24.29;58.88
10958;BME280;5531;42.570;23.676;2022-08-03T11:38:06;92246.00;;;24.21;59.75
10958;BME280;5531;42.570;23.676;2022-08-03T11:40:41;92246.84;;;24.11;60.16
10958;BME280;5531;42.570;23.676;2022-08-03T11:46:11;92241.22;;;24.08;61.53
10958;BME280;5531;42.570;23.676;2022-08-03T11:48:43;92240.84;;;24.35;61.92
10958;BME280;5531;42.570;23.676;2022-08-03T11:51:20;92235.09;;;24.62;61.95
10958;BME280;5531;42.570;23.676;2022-08-03T11:53:53;92236.03;;;24.87;60.29
10958;BME280;5531;42.570;23.676;2022-08-03T11:56:26;92234.97;;;24.83;59.75
10958;BME280;5531;42.570;23.676;2022-08-03T11:58:57;92234.84;;;24.59;61.24
10958;BME280;5531;42.570;23.676;2022-08-03T12:01:26;92233.44;;;24.72;60.43
10958;BME280;5531;42.570;23.676;2022-08-03T12:04:01;92231.78;;;24.81;60.01
10958;BME280;5531;42.570;23.676;2022-08-03T12:06:32;92227.22;;;24.81;58.85
10958;BME280;5531;42.570;23.676;2022-08-03T12:09:20;92225.13;;;25.07;58.77
10958;BME280;5531;42.570;23.676;2022-08-03T12:11:52;92234.13;;;25.27;57.68
10958;BME280;5531;42.570;23.676;2022-08-03T12:14:21;92226.97;;;25.12;58.09
10958;BME280;5531;42.570;23.676;2022-08-03T12:16:50;92230.38;;;25.28;57.21
10958;BME280;5531;42.570;23.676;2022-08-03T12:19:19;92212.81;;;25.70;56.92
10958;BME280;5531;42.570;23.676;2022-08-03T12:21:48;92222.63;;;25.80;54.29
10958;BME280;5531;42.570;23.676;2022-08-03T12:24:18;92219.69;;;25.76;55.01
10958;BME280;5531;42.570;23.676;2022-08-03T12:26:48;92224.94;;;25.63;54.83
10958;BME280;5531;42.570;23.676;2022-08-03T12:29:21;92217.94;;;25.37;55.28
10958;BME280;5531;42.570;23.676;2022-08-03T12:31:51;92225.41;;;25.06;55.66
10958;BME280;5531;42.570;23.676;2022-08-03T12:34:20;92204.19;;;24.75;56.39
10958;BME280;5531;42.570;23.676;2022-08-03T12:36:51;92217.38;;;25.06;57.16
10958;BME280;5531;42.570;23.676;2022-08-03T12:39:22;92206.63;;;25.40;56.36
10958;BME280;5531;42.570;23.676;2022-08-03T12:41:53;92215.38;;;25.80;55.97
10958;BME280;5531;42.570;23.676;2022-08-03T12:44:32;92211.94;;;26.23;55.75
10958;BME280;5531;42.570;23.676;2022-08-03T12:47:02;92210.06;;;26.67;55.60
10958;BME280;5531;42.570;23.676;2022-08-03T12:49:44;92205.31;;;26.97;53.36
10958;BME280;5531;42.570;23.676;2022-08-03T12:52:15;92214.53;;;26.91;52.71
10958;BME280;5531;42.570;23.676;2022-08-03T12:54:53;92211.88;;;26.72;52.88
10958;BME280;5531;42.570;23.676;2022-08-03T12:57:23;92211.66;;;26.68;53.43
10958;BME280;5531;42.570;23.676;2022-08-03T13:00:09;92211.66;;;26.68;52.41
10958;BME280;5531;42.570;23.676;2022-08-03T13:02:39;92205.16;;;26.50;52.29
10958;BME280;5531;42.570;23.676;2022-08-03T13:05:09;92202.25;;;26.27;53.15
10958;BME280;5531;42.570;23.676;2022-08-03T13:07:43;92207.78;;;26.55;53.54
10958;BME280;5531;42.570;23.676;2022-08-03T13:10:26;92204.81;;;26.57;48.91
10958;BME280;5531;42.570;23.676;2022-08-03T13:12:56;92198.63;;;26.37;49.75
10958;BME280;5531;42.570;23.676;2022-08-03T13:15:31;92193.81;;;26.34;50.24
10958;BME280;5531;42.570;23.676;2022-08-03T13:18:04;92201.06;;;26.33;51.16
10958;BME280;5531;42.570;23.676;2022-08-03T13:20:33;92187.59;;;26.39;51.28
10958;BME280;5531;42.570;23.676;2022-08-03T13:23:02;92193.59;;;26.30;47.74
10958;BME280;5531;42.570;23.676;2022-08-03T13:25:37;92189.38;;;26.24;48.57
10958;BME280;5531;42.570;23.676;2022-08-03T13:28:07;92190.53;;;26.18;48.98
10958;BME280;5531;42.570;23.676;2022-08-03T13:30:39;92194.09;;;26.32;48.65